Powell, WY (82435)

1:27 AM MDT on August 19, 2017 (GMT -0600)
W Powell | | Change Station
Active Advisory: Special Statement

Elev 4393 ft 44.75 °N, 108.77 °W | Updated 5 seconds ago

Clear
Clear
65.3 °F
Feels Like 65.3 °F
N
2.2
Wind Variable Wind from SW

Today
High -- | Low -- °F
--% Chance of Precip.
Yesterday
High -- | Low -- °F
Precip. -- in
Pressure 29.88 in
Visibility 10.0 miles
Clouds Clear
Dew Point 39 °F
Humidity 38%
Rainfall 0.00 in
Snow Depth Not available.
6:22 AM 8:13 PM
Waning Crescent, 8% visible
METAR KCOD 190556Z AUTO 22008KT 10SM CLR 23/01 A3006 RMK AO2 SLP119 T02330011 10306 20222 58000
Pressure 29.88 in
Visibility 10.0 miles
Clouds Clear
Dew Point 39 °F
Humidity 38%
Rainfall 0.00 in
Snow Depth Not available.
6:22 AM 8:13 PM
Waning Crescent, 8% visible
METAR KCOD 190556Z AUTO 22008KT 10SM CLR 23/01 A3006 RMK AO2 SLP119 T02330011 10306 20222 58000

Get Your Daily Forecast Email!

Thanks for signing up!

Be on the lookout for a verification email in your inbox.

You'll start receiving severe weather alerts in your inbox..

×

10-Day Weather Forecast

Almanac

Astronomy

Aug. 19, 2017 Rise Set
Actual Time
Civil Twilight
Nautical Twilight
Astronomical Twilight
Moon
Length of Visible Light
Length of Day
Tomorrow will be .
, % of the Moon is Illuminated

Today's Extremes

State Highs State Lows

Community

WunderPhotos

Category 6

Welcome to Category 6. This is the collective home for Weather Underground's featured writeups by Dr. Jeff Masters (right), Bob Henson (left), Chris Burt, and other regular contributors.

Nearby

Air Quality

  Air Quality AQ Index Pollutant
Not available.

Snow Depth

Station Depth Elevation

Earthquake Activity

City Distance Mag. Time & Date
Minimum magnitude displayed is 2.5.

Coastal Water Temperatures

Place Temperature

Stations

Nearby Weather Stations

Station Location Temp. Windchill Dew Point Humidity Wind Precip. Elev Updated Type
                   

Watches & Warnings

Special Statement
Issued: 9:08 PM MDT Aug. 18, 2017 – National Weather Service

... Elevated fire conditions will exist Saturday...

Elevated fire weather conditions can be expected for all of
central and northern Wyoming Saturday as relative humidity drops
into the lower teens across the lower elevations... to near 20
percent in the Cody foothills. Winds will be variable 5 to 15 mph
with occasional afternoon gusts to 20 mph at times. Residents,
travellers, and campers this weekend are encouraged to take strong
caution if considering any type of burning activities. Please
follow local burning rules. In addition, do not park your vehicle
over any dry plant surface as this could cause the vehicle to go
up in flames.